sensor_id;sensor_type;location;lat;lon;timestamp;temperature;humidity
32865;DHT22;19219;44.500;11.188;2023-05-16T00:00:27;15.20;99.90
32865;DHT22;19219;44.500;11.188;2023-05-16T00:02:53;15.20;99.90
32865;DHT22;19219;44.500;11.188;2023-05-16T00:05:18;15.20;99.90
32865;DHT22;19219;44.500;11.188;2023-05-16T00:07:45;15.30;99.90
32865;DHT22;19219;44.500;11.188;2023-05-16T00:10:12;15.30;99.90
32865;DHT22;19219;44.500;11.188;2023-05-16T00:12:38;15.30;99.90
32865;DHT22;19219;44.500;11.188;2023-05-16T00:15:09;15.30;99.90
32865;DHT22;19219;44.500;11.188;2023-05-16T00:17:37;15.40;99.90
32865;DHT22;19219;44.500;11.188;2023-05-16T00:20:03;15.40;99.90
32865;DHT22;19219;44.500;11.188;2023-05-16T00:22:32;15.40;99.90
32865;DHT22;19219;44.500;11.188;2023-05-16T00:24:57;15.40;99.90
32865;DHT22;19219;44.500;11.188;2023-05-16T00:27:23;15.40;99.90
32865;DHT22;19219;44.500;11.188;2023-05-16T00:29:49;15.40;99.90
32865;DHT22;19219;44.500;11.188;2023-05-16T00:32:14;15.40;99.90
32865;DHT22;19219;44.500;11.188;2023-05-16T00:34:41;15.40;99.90
32865;DHT22;19219;44.500;11.188;2023-05-16T00:37:06;15.40;99.90
32865;DHT22;19219;44.500;11.188;2023-05-16T00:39:32;15.50;99.90
32865;DHT22;19219;44.500;11.188;2023-05-16T00:41:58;15.60;99.90
32865;DHT22;19219;44.500;11.188;2023-05-16T00:44:23;15.50;99.90
32865;DHT22;19219;44.500;11.188;2023-05-16T00:46:49;15.50;99.90
32865;DHT22;19219;44.500;11.188;2023-05-16T00:49:15;15.50;99.90
32865;DHT22;19219;44.500;11.188;2023-05-16T00:51:41;15.50;99.90
32865;DHT22;19219;44.500;11.188;2023-05-16T00:54:08;15.50;99.90
32865;DHT22;19219;44.500;11.188;2023-05-16T00:56:34;15.50;99.90
32865;DHT22;19219;44.500;11.188;2023-05-16T00:59:00;15.40;99.90
32865;DHT22;19219;44.500;11.188;2023-05-16T01:01:28;15.50;99.90
32865;DHT22;19219;44.500;11.188;2023-05-16T01:03:54;15.40;99.90
32865;DHT22;19219;44.500;11.188;2023-05-16T01:06:19;15.40;99.90
32865;DHT22;19219;44.500;11.188;2023-05-16T01:08:45;15.30;99.90
32865;DHT22;19219;44.500;11.188;2023-05-16T01:14:19;15.30;99.90
32865;DHT22;19219;44.500;11.188;2023-05-16T01:25:37;15.40;99.90
32865;DHT22;19219;44.500;11.188;2023-05-16T01:28:04;15.40;99.90
32865;DHT22;19219;44.500;11.188;2023-05-16T01:30:39;15.40;99.90
32865;DHT22;19219;44.500;11.188;2023-05-16T01:33:06;15.40;99.90
32865;DHT22;19219;44.500;11.188;2023-05-16T01:35:32;15.40;99.90
32865;DHT22;19219;44.500;11.188;2023-05-16T01:38:15;15.40;99.90
32865;DHT22;19219;44.500;11.188;2023-05-16T01:40:52;15.50;99.90
32865;DHT22;19219;44.500;11.188;2023-05-16T01:43:31;15.50;99.90
32865;DHT22;19219;44.500;11.188;2023-05-16T01:46:03;15.50;99.90
32865;DHT22;19219;44.500;11.188;2023-05-16T01:48:36;15.50;99.90
32865;DHT22;19219;44.500;11.188;2023-05-16T01:51:03;15.50;99.90
32865;DHT22;19219;44.500;11.188;2023-05-16T01:53:37;15.50;99.90
32865;DHT22;19219;44.500;11.188;2023-05-16T01:56:04;15.50;99.90
32865;DHT22;19219;44.500;11.188;2023-05-16T01:58:34;15.50;99.90
32865;DHT22;19219;44.500;11.188;2023-05-16T02:01:02;15.50;99.90
32865;DHT22;19219;44.500;11.188;2023-05-16T02:03:29;15.50;99.90
32865;DHT22;19219;44.500;11.188;2023-05-16T02:05:55;15.50;99.90
32865;DHT22;19219;44.500;11.188;2023-05-16T02:08:21;15.50;99.90
32865;DHT22;19219;44.500;11.188;2023-05-16T02:10:47;15.40;99.90
32865;DHT22;19219;44.500;11.188;2023-05-16T02:13:13;15.40;99.90
32865;DHT22;19219;44.500;11.188;2023-05-16T02:15:38;15.40;99.90
32865;DHT22;19219;44.500;11.188;2023-05-16T02:18:04;15.40;99.90
32865;DHT22;19219;44.500;11.188;2023-05-16T02:20:30;15.40;99.90
32865;DHT22;19219;44.500;11.188;2023-05-16T02:22:55;15.40;99.90
32865;DHT22;19219;44.500;11.188;2023-05-16T02:25:21;15.50;99.90
32865;DHT22;19219;44.500;11.188;2023-05-16T02:27:47;15.50;99.90
32865;DHT22;19219;44.500;11.188;2023-05-16T02:30:13;15.40;99.90
32865;DHT22;19219;44.500;11.188;2023-05-16T02:32:39;15.50;99.90
32865;DHT22;19219;44.500;11.188;2023-05-16T02:35:05;15.40;99.90
32865;DHT22;19219;44.500;11.188;2023-05-16T02:37:32;15.50;99.90
32865;DHT22;19219;44.500;11.188;2023-05-16T02:39:58;15.50;99.90
32865;DHT22;19219;44.500;11.188;2023-05-16T02:42:25;15.50;99.90
32865;DHT22;19219;44.500;11.188;2023-05-16T02:44:52;15.50;99.90
32865;DHT22;19219;44.500;11.188;2023-05-16T02:47:17;15.40;99.90
32865;DHT22;19219;44.500;11.188;2023-05-16T02:49:43;15.40;99.90
32865;DHT22;19219;44.500;11.188;2023-05-16T02:52:09;15.40;99.90
32865;DHT22;19219;44.500;11.188;2023-05-16T02:54:36;15.50;99.90
32865;DHT22;19219;44.500;11.188;2023-05-16T02:57:01;15.50;99.90
32865;DHT22;19219;44.500;11.188;2023-05-16T02:59:27;15.40;99.90
32865;DHT22;19219;44.500;11.188;2023-05-16T03:01:53;15.40;99.90
32865;DHT22;19219;44.500;11.188;2023-05-16T03:04:18;15.40;99.90
32865;DHT22;19219;44.500;11.188;2023-05-16T03:06:44;15.40;99.90
32865;DHT22;19219;44.500;11.188;2023-05-16T03:09:11;15.30;99.90
32865;DHT22;19219;44.500;11.188;2023-05-16T03:11:36;15.20;99.90
32865;DHT22;19219;44.500;11.188;2023-05-16T03:14:02;15.10;99.90
32865;DHT22;19219;44.500;11.188;2023-05-16T03:16:28;15.10;99.90
32865;DHT22;19219;44.500;11.188;2023-05-16T03:18:54;15.00;99.90
32865;DHT22;19219;44.500;11.188;2023-05-16T03:21:20;15.00;99.90
32865;DHT22;19219;44.500;11.188;2023-05-16T03:23:46;15.00;99.90
32865;DHT22;19219;44.500;11.188;2023-05-16T03:26:11;14.90;99.90
32865;DHT22;19219;44.500;11.188;2023-05-16T03:28:37;14.80;99.90
32865;DHT22;19219;44.500;11.188;2023-05-16T03:31:03;14.90;99.90
32865;DHT22;19219;44.500;11.188;2023-05-16T03:33:28;14.80;99.90
32865;DHT22;19219;44.500;11.188;2023-05-16T03:35:54;14.70;99.90
32865;DHT22;19219;44.500;11.188;2023-05-16T03:38:19;14.80;99.90
32865;DHT22;19219;44.500;11.188;2023-05-16T03:40:45;14.70;99.90
32865;DHT22;19219;44.500;11.188;2023-05-16T03:43:11;14.60;99.90
32865;DHT22;19219;44.500;11.188;2023-05-16T03:45:37;14.50;99.90
32865;DHT22;19219;44.500;11.188;2023-05-16T03:48:03;14.40;99.90
32865;DHT22;19219;44.500;11.188;2023-05-16T03:50:29;14.30;99.90
32865;DHT22;19219;44.500;11.188;2023-05-16T03:52:55;14.30;99.90
32865;DHT22;19219;44.500;11.188;2023-05-16T03:55:20;14.30;99.90
32865;DHT22;19219;44.500;11.188;2023-05-16T03:57:46;14.30;99.90
32865;DHT22;19219;44.500;11.188;2023-05-16T04:00:14;14.20;99.90
32865;DHT22;19219;44.500;11.188;2023-05-16T04:02:40;14.20;99.90
32865;DHT22;19219;44.500;11.188;2023-05-16T04:05:09;14.20;99.90
32865;DHT22;19219;44.500;11.188;2023-05-16T04:07:36;14.10;99.90
32865;DHT22;19219;44.500;11.188;2023-05-16T04:10:03;14.10;99.90
32865;DHT22;19219;44.500;11.188;2023-05-16T04:12:28;14.00;99.90
32865;DHT22;19219;44.500;11.188;2023-05-16T04:14:54;14.00;99.90
32865;DHT22;19219;44.500;11.188;2023-05-16T04:17:20;13.90;99.90
32865;DHT22;19219;44.500;11.188;2023-05-16T04:19:45;13.90;99.90
32865;DHT22;19219;44.500;11.188;2023-05-16T04:22:11;13.80;99.90
32865;DHT22;19219;44.500;11.188;2023-05-16T04:24:37;13.80;99.90
32865;DHT22;19219;44.500;11.188;2023-05-16T04:27:03;13.80;99.90
32865;DHT22;19219;44.500;11.188;2023-05-16T04:29:29;13.80;99.90
32865;DHT22;19219;44.500;11.188;2023-05-16T04:31:56;13.80;99.90
32865;DHT22;19219;44.500;11.188;2023-05-16T04:34:22;13.90;99.90
32865;DHT22;19219;44.500;11.188;2023-05-16T04:36:52;14.00;99.90
32865;DHT22;19219;44.500;11.188;2023-05-16T04:39:18;14.00;99.90
32865;DHT22;19219;44.500;11.188;2023-05-16T04:41:43;14.00;99.90
32865;DHT22;19219;44.500;11.188;2023-05-16T04:44:09;14.00;99.90
32865;DHT22;19219;44.500;11.188;2023-05-16T04:46:36;14.10;99.90
32865;DHT22;19219;44.500;11.188;2023-05-16T04:49:02;14.20;99.90
32865;DHT22;19219;44.500;11.188;2023-05-16T04:51:27;14.10;99.90
32865;DHT22;19219;44.500;11.188;2023-05-16T04:53:54;14.10;99.90
32865;DHT22;19219;44.500;11.188;2023-05-16T04:56:19;14.10;99.90
32865;DHT22;19219;44.500;11.188;2023-05-16T04:58:45;14.20;99.90
32865;DHT22;19219;44.500;11.188;2023-05-16T05:01:11;14.10;99.90
32865;DHT22;19219;44.500;11.188;2023-05-16T05:03:37;14.00;99.90
32865;DHT22;19219;44.500;11.188;2023-05-16T05:06:02;14.10;99.90
32865;DHT22;19219;44.500;11.188;2023-05-16T05:08:28;14.00;99.90
32865;DHT22;19219;44.500;11.188;2023-05-16T05:10:55;14.00;99.90
32865;DHT22;19219;44.500;11.188;2023-05-16T05:13:21;14.00;99.90
32865;DHT22;19219;44.500;11.188;2023-05-16T05:15:46;14.00;99.90
32865;DHT22;19219;44.500;11.188;2023-05-16T05:18:12;13.90;99.90
32865;DHT22;19219;44.500;11.188;2023-05-16T05:20:37;13.90;99.90
32865;DHT22;19219;44.500;11.188;2023-05-16T05:23:03;13.90;99.90
32865;DHT22;19219;44.500;11.188;2023-05-16T05:25:29;13.90;99.90
32865;DHT22;19219;44.500;11.188;2023-05-16T05:27:54;13.90;99.90
32865;DHT22;19219;44.500;11.188;2023-05-16T05:30:20;13.90;99.90
32865;DHT22;19219;44.500;11.188;2023-05-16T05:32:46;13.90;99.90
32865;DHT22;19219;44.500;11.188;2023-05-16T05:35:11;13.90;99.90
32865;DHT22;19219;44.500;11.188;2023-05-16T05:37:37;13.90;99.90
32865;DHT22;19219;44.500;11.188;2023-05-16T05:40:03;13.80;99.90
32865;DHT22;19219;44.500;11.188;2023-05-16T05:42:28;13.80;99.90
32865;DHT22;19219;44.500;11.188;2023-05-16T05:44:54;13.80;99.90
32865;DHT22;19219;44.500;11.188;2023-05-16T05:47:20;13.80;99.90
32865;DHT22;19219;44.500;11.188;2023-05-16T05:49:46;13.80;99.90
32865;DHT22;19219;44.500;11.188;2023-05-16T05:52:12;13.80;99.90
32865;DHT22;19219;44.500;11.188;2023-05-16T05:54:37;13.80;99.90
32865;DHT22;19219;44.500;11.188;2023-05-16T05:57:03;13.80;99.90
32865;DHT22;19219;44.500;11.188;2023-05-16T05:59:29;13.70;99.90
32865;DHT22;19219;44.500;11.188;2023-05-16T06:01:54;13.70;99.90
32865;DHT22;19219;44.500;11.188;2023-05-16T06:04:20;13.80;99.90
32865;DHT22;19219;44.500;11.188;2023-05-16T06:06:46;13.70;99.90
32865;DHT22;19219;44.500;11.188;2023-05-16T06:09:12;13.70;99.90
32865;DHT22;19219;44.500;11.188;2023-05-16T06:11:39;13.80;99.90
32865;DHT22;19219;44.500;11.188;2023-05-16T06:14:05;13.70;99.90
32865;DHT22;19219;44.500;11.188;2023-05-16T06:18:57;13.70;99.90
32865;DHT22;19219;44.500;11.188;2023-05-16T06:21:22;13.70;99.90
32865;DHT22;19219;44.500;11.188;2023-05-16T06:23:48;13.60;99.90
32865;DHT22;19219;44.500;11.188;2023-05-16T06:26:14;13.60;99.90
32865;DHT22;19219;44.500;11.188;2023-05-16T06:28:40;13.60;99.90
32865;DHT22;19219;44.500;11.188;2023-05-16T06:31:05;13.60;99.90
32865;DHT22;19219;44.500;11.188;2023-05-16T06:33:31;13.60;99.90
32865;DHT22;19219;44.500;11.188;2023-05-16T06:35:57;13.60;99.90
32865;DHT22;19219;44.500;11.188;2023-05-16T06:38:23;13.40;99.90
32865;DHT22;19219;44.500;11.188;2023-05-16T06:40:48;13.40;99.90
32865;DHT22;19219;44.500;11.188;2023-05-16T06:43:14;13.40;99.90
32865;DHT22;19219;44.500;11.188;2023-05-16T06:45:40;13.30;99.90
32865;DHT22;19219;44.500;11.188;2023-05-16T06:48:07;13.30;99.90
32865;DHT22;19219;44.500;11.188;2023-05-16T06:50:32;13.20;99.90
32865;DHT22;19219;44.500;11.188;2023-05-16T06:53:00;13.20;99.90
32865;DHT22;19219;44.500;11.188;2023-05-16T06:55:26;13.30;99.90
32865;DHT22;19219;44.500;11.188;2023-05-16T06:57:51;13.20;99.90
32865;DHT22;19219;44.500;11.188;2023-05-16T07:00:17;13.10;99.90
32865;DHT22;19219;44.500;11.188;2023-05-16T07:02:43;13.20;99.90
32865;DHT22;19219;44.500;11.188;2023-05-16T07:05:09;13.20;99.90
32865;DHT22;19219;44.500;11.188;2023-05-16T07:07:35;13.20;99.90
32865;DHT22;19219;44.500;11.188;2023-05-16T07:10:01;13.20;99.90
32865;DHT22;19219;44.500;11.188;2023-05-16T07:12:26;13.10;99.90
32865;DHT22;19219;44.500;11.188;2023-05-16T07:14:52;13.20;99.90
32865;DHT22;19219;44.500;11.188;2023-05-16T07:17:17;13.20;99.90
32865;DHT22;19219;44.500;11.188;2023-05-16T07:19:43;13.10;99.90
32865;DHT22;19219;44.500;11.188;2023-05-16T07:22:09;13.20;99.90
32865;DHT22;19219;44.500;11.188;2023-05-16T07:24:36;13.20;99.90
32865;DHT22;19219;44.500;11.188;2023-05-16T07:27:02;13.20;99.90
32865;DHT22;19219;44.500;11.188;2023-05-16T07:29:27;13.20;99.90
32865;DHT22;19219;44.500;11.188;2023-05-16T07:31:54;13.20;99.90
32865;DHT22;19219;44.500;11.188;2023-05-16T07:34:20;13.20;99.90
32865;DHT22;19219;44.500;11.188;2023-05-16T07:36:46;13.20;99.90
32865;DHT22;19219;44.500;11.188;2023-05-16T07:39:11;13.30;99.90
32865;DHT22;19219;44.500;11.188;2023-05-16T07:41:37;13.30;99.90
32865;DHT22;19219;44.500;11.188;2023-05-16T07:44:03;13.30;99.90
32865;DHT22;19219;44.500;11.188;2023-05-16T07:46:28;13.40;99.90
32865;DHT22;19219;44.500;11.188;2023-05-16T07:48:54;13.40;99.90
32865;DHT22;19219;44.500;11.188;2023-05-16T07:51:20;13.40;99.90
32865;DHT22;19219;44.500;11.188;2023-05-16T07:53:45;13.40;99.90
32865;DHT22;19219;44.500;11.188;2023-05-16T07:56:11;13.50;99.90
32865;DHT22;19219;44.500;11.188;2023-05-16T07:58:37;13.50;99.90
32865;DHT22;19219;44.500;11.188;2023-05-16T08:01:03;13.50;99.90
32865;DHT22;19219;44.500;11.188;2023-05-16T08:03:29;13.40;99.90
32865;DHT22;19219;44.500;11.188;2023-05-16T08:05:54;13.50;99.90
32865;DHT22;19219;44.500;11.188;2023-05-16T08:08:20;13.50;99.90
32865;DHT22;19219;44.500;11.188;2023-05-16T08:10:46;13.40;99.90
32865;DHT22;19219;44.500;11.188;2023-05-16T08:13:11;13.40;99.90
32865;DHT22;19219;44.500;11.188;2023-05-16T08:15:37;13.40;99.90
32865;DHT22;19219;44.500;11.188;2023-05-16T08:18:02;13.40;99.90
32865;DHT22;19219;44.500;11.188;2023-05-16T08:20:31;13.40;99.90
32865;DHT22;19219;44.500;11.188;2023-05-16T08:22:56;13.50;99.90
32865;DHT22;19219;44.500;11.188;2023-05-16T08:25:22;13.40;99.90
32865;DHT22;19219;44.500;11.188;2023-05-16T08:27:48;13.50;99.90
32865;DHT22;19219;44.500;11.188;2023-05-16T08:30:15;13.50;99.90
32865;DHT22;19219;44.500;11.188;2023-05-16T08:32:40;13.50;99.90
32865;DHT22;19219;44.500;11.188;2023-05-16T08:35:07;13.60;99.90
32865;DHT22;19219;44.500;11.188;2023-05-16T08:37:32;13.70;99.90
32865;DHT22;19219;44.500;11.188;2023-05-16T08:39:59;13.70;99.90
32865;DHT22;19219;44.500;11.188;2023-05-16T08:42:25;13.80;99.90
32865;DHT22;19219;44.500;11.188;2023-05-16T08:44:51;13.80;99.90
32865;DHT22;19219;44.500;11.188;2023-05-16T08:47:18;13.80;99.90
32865;DHT22;19219;44.500;11.188;2023-05-16T08:49:47;13.80;99.90
32865;DHT22;19219;44.500;11.188;2023-05-16T08:52:13;13.90;99.90
32865;DHT22;19219;44.500;11.188;2023-05-16T08:54:41;14.00;99.90
32865;DHT22;19219;44.500;11.188;2023-05-16T08:57:08;14.00;99.90
32865;DHT22;19219;44.500;11.188;2023-05-16T08:59:34;14.10;99.90
32865;DHT22;19219;44.500;11.188;2023-05-16T09:01:59;14.10;99.90
32865;DHT22;19219;44.500;11.188;2023-05-16T09:04:25;14.10;99.90
32865;DHT22;19219;44.500;11.188;2023-05-16T09:06:52;14.00;99.90
32865;DHT22;19219;44.500;11.188;2023-05-16T09:09:18;14.10;99.90
32865;DHT22;19219;44.500;11.188;2023-05-16T09:11:44;14.10;99.90
32865;DHT22;19219;44.500;11.188;2023-05-16T09:14:10;14.00;99.90
32865;DHT22;19219;44.500;11.188;2023-05-16T09:16:36;14.00;99.90
32865;DHT22;19219;44.500;11.188;2023-05-16T09:19:01;14.00;99.90
32865;DHT22;19219;44.500;11.188;2023-05-16T09:21:31;14.10;99.90
32865;DHT22;19219;44.500;11.188;2023-05-16T09:24:07;14.20;99.90
32865;DHT22;19219;44.500;11.188;2023-05-16T09:26:35;14.20;99.90
32865;DHT22;19219;44.500;11.188;2023-05-16T09:29:01;14.10;99.90
32865;DHT22;19219;44.500;11.188;2023-05-16T09:31:27;14.10;99.90
32865;DHT22;19219;44.500;11.188;2023-05-16T09:34:03;14.20;99.90
32865;DHT22;19219;44.500;11.188;2023-05-16T09:36:30;14.20;99.90
32865;DHT22;19219;44.500;11.188;2023-05-16T09:38:56;14.20;99.90
32865;DHT22;19219;44.500;11.188;2023-05-16T09:41:22;14.30;99.90
32865;DHT22;19219;44.500;11.188;2023-05-16T09:43:48;14.30;99.90
32865;DHT22;19219;44.500;11.188;2023-05-16T09:46:14;14.40;99.90
32865;DHT22;19219;44.500;11.188;2023-05-16T09:48:41;14.40;99.90
32865;DHT22;19219;44.500;11.188;2023-05-16T09:51:11;14.40;99.90
32865;DHT22;19219;44.500;11.188;2023-05-16T09:53:37;14.50;99.90
32865;DHT22;19219;44.500;11.188;2023-05-16T09:56:05;14.40;99.90
32865;DHT22;19219;44.500;11.188;2023-05-16T09:58:33;14.40;99.90
32865;DHT22;19219;44.500;11.188;2023-05-16T10:01:00;14.50;99.90
32865;DHT22;19219;44.500;11.188;2023-05-16T10:03:27;14.50;99.90
32865;DHT22;19219;44.500;11.188;2023-05-16T10:05:53;14.50;99.90
32865;DHT22;19219;44.500;11.188;2023-05-16T10:08:24;14.50;99.90
32865;DHT22;19219;44.500;11.188;2023-05-16T10:10:52;14.50;99.90
32865;DHT22;19219;44.500;11.188;2023-05-16T10:13:29;14.50;99.90
32865;DHT22;19219;44.500;11.188;2023-05-16T10:15:59;14.40;99.90
32865;DHT22;19219;44.500;11.188;2023-05-16T10:18:30;14.30;99.90
32865;DHT22;19219;44.500;11.188;2023-05-16T10:21:00;14.20;99.90
32865;DHT22;19219;44.500;11.188;2023-05-16T10:23:28;14.20;99.90
32865;DHT22;19219;44.500;11.188;2023-05-16T10:25:57;14.30;99.90
32865;DHT22;19219;44.500;11.188;2023-05-16T10:28:23;14.30;99.90
32865;DHT22;19219;44.500;11.188;2023-05-16T10:30:50;14.30;99.90
32865;DHT22;19219;44.500;11.188;2023-05-16T10:33:17;14.20;99.90
32865;DHT22;19219;44.500;11.188;2023-05-16T10:35:44;14.20;99.90
32865;DHT22;19219;44.500;11.188;2023-05-16T10:38:12;14.20;99.90
32865;DHT22;19219;44.500;11.188;2023-05-16T10:40:39;14.30;99.90
32865;DHT22;19219;44.500;11.188;2023-05-16T10:43:07;14.40;99.90
32865;DHT22;19219;44.500;11.188;2023-05-16T10:45:33;14.40;99.90
32865;DHT22;19219;44.500;11.188;2023-05-16T10:48:01;14.50;99.90
32865;DHT22;19219;44.500;11.188;2023-05-16T10:50:37;14.40;99.90
32865;DHT22;19219;44.500;11.188;2023-05-16T10:53:31;14.50;99.90
32865;DHT22;19219;44.500;11.188;2023-05-16T11:01:19;14.50;99.90
32865;DHT22;19219;44.500;11.188;2023-05-16T11:14:41;14.40;99.90
32865;DHT22;19219;44.500;11.188;2023-05-16T11:17:15;14.40;99.90
32865;DHT22;19219;44.500;11.188;2023-05-16T11:19:47;14.40;99.90
32865;DHT22;19219;44.500;11.188;2023-05-16T11:25:02;14.50;99.90
32865;DHT22;19219;44.500;11.188;2023-05-16T11:27:29;14.50;99.90
32865;DHT22;19219;44.500;11.188;2023-05-16T11:32:32;14.50;99.90
32865;DHT22;19219;44.500;11.188;2023-05-16T11:34:58;14.50;99.90
32865;DHT22;19219;44.500;11.188;2023-05-16T11:37:24;14.50;99.90
32865;DHT22;19219;44.500;11.188;2023-05-16T11:39:49;14.60;99.90
32865;DHT22;19219;44.500;11.188;2023-05-16T11:42:15;14.60;99.90
32865;DHT22;19219;44.500;11.188;2023-05-16T11:44:42;14.60;99.90
32865;DHT22;19219;44.500;11.188;2023-05-16T11:47:08;14.50;99.90
32865;DHT22;19219;44.500;11.188;2023-05-16T11:49:34;14.40;99.90
32865;DHT22;19219;44.500;11.188;2023-05-16T11:52:00;14.40;99.90
32865;DHT22;19219;44.500;11.188;2023-05-16T11:54:26;14.40;99.90
32865;DHT22;19219;44.500;11.188;2023-05-16T11:56:52;14.40;99.90
32865;DHT22;19219;44.500;11.188;2023-05-16T11:59:18;14.50;99.90
32865;DHT22;19219;44.500;11.188;2023-05-16T12:01:45;14.50;99.90
32865;DHT22;19219;44.500;11.188;2023-05-16T12:04:15;14.50;99.90
32865;DHT22;19219;44.500;11.188;2023-05-16T12:06:42;14.50;99.90
32865;DHT22;19219;44.500;11.188;2023-05-16T12:09:13;14.60;99.90
32865;DHT22;19219;44.500;11.188;2023-05-16T12:11:41;14.50;99.90
32865;DHT22;19219;44.500;11.188;2023-05-16T12:14:10;14.60;99.90
32865;DHT22;19219;44.500;11.188;2023-05-16T12:16:37;14.60;99.90
32865;DHT22;19219;44.500;11.188;2023-05-16T12:19:06;14.60;99.90
32865;DHT22;19219;44.500;11.188;2023-05-16T12:21:33;14.70;99.90
32865;DHT22;19219;44.500;11.188;2023-05-16T12:23:59;14.70;99.90
32865;DHT22;19219;44.500;11.188;2023-05-16T12:26:26;14.70;99.90
32865;DHT22;19219;44.500;11.188;2023-05-16T12:28:52;14.70;99.90
32865;DHT22;19219;44.500;11.188;2023-05-16T12:31:20;14.70;99.90
32865;DHT22;19219;44.500;11.188;2023-05-16T12:33:46;14.80;99.90
32865;DHT22;19219;44.500;11.188;2023-05-16T12:36:12;14.80;99.90
32865;DHT22;19219;44.500;11.188;2023-05-16T12:38:40;14.80;99.90
32865;DHT22;19219;44.500;11.188;2023-05-16T12:41:06;14.80;99.90
32865;DHT22;19219;44.500;11.188;2023-05-16T12:43:32;14.80;99.90
32865;DHT22;19219;44.500;11.188;2023-05-16T12:45:57;14.80;99.90
32865;DHT22;19219;44.500;11.188;2023-05-16T12:48:32;14.80;99.90
32865;DHT22;19219;44.500;11.188;2023-05-16T12:51:19;14.80;99.90
32865;DHT22;19219;44.500;11.188;2023-05-16T12:53:46;14.80;99.90
32865;DHT22;19219;44.500;11.188;2023-05-16T12:56:12;14.80;99.90
32865;DHT22;19219;44.500;11.188;2023-05-16T12:58:40;14.80;99.90
32865;DHT22;19219;44.500;11.188;2023-05-16T13:01:06;14.80;99.90
32865;DHT22;19219;44.500;11.188;2023-05-16T13:03:32;14.80;99.90
32865;DHT22;19219;44.500;11.188;2023-05-16T13:05:58;14.90;99.90
32865;DHT22;19219;44.500;11.188;2023-05-16T13:08:25;14.90;99.90
32865;DHT22;19219;44.500;11.188;2023-05-16T13:10:51;15.10;99.90
32865;DHT22;19219;44.500;11.188;2023-05-16T13:13:17;15.10;99.90
32865;DHT22;19219;44.500;11.188;2023-05-16T13:15:44;15.10;99.90
32865;DHT22;19219;44.500;11.188;2023-05-16T13:18:10;15.10;99.90
32865;DHT22;19219;44.500;11.188;2023-05-16T13:20:36;15.20;99.90
32865;DHT22;19219;44.500;11.188;2023-05-16T13:23:01;15.20;99.90
32865;DHT22;19219;44.500;11.188;2023-05-16T13:25:27;15.20;99.90
32865;DHT22;19219;44.500;11.188;2023-05-16T13:27:53;15.20;99.90
32865;DHT22;19219;44.500;11.188;2023-05-16T13:30:18;15.20;99.90
32865;DHT22;19219;44.500;11.188;2023-05-16T13:32:44;15.20;99.90
32865;DHT22;19219;44.500;11.188;2023-05-16T13:35:10;15.20;99.90
32865;DHT22;19219;44.500;11.188;2023-05-16T13:37:36;15.20;99.90
32865;DHT22;19219;44.500;11.188;2023-05-16T13:40:02;15.10;99.90
32865;DHT22;19219;44.500;11.188;2023-05-16T13:42:29;15.20;99.90
32865;DHT22;19219;44.500;11.188;2023-05-16T13:44:55;15.20;99.90
32865;DHT22;19219;44.500;11.188;2023-05-16T13:47:21;15.20;99.90
32865;DHT22;19219;44.500;11.188;2023-05-16T13:49:46;15.10;99.90
32865;DHT22;19219;44.500;11.188;2023-05-16T13:52:12;15.20;99.90
32865;DHT22;19219;44.500;11.188;2023-05-16T13:54:39;15.20;99.90
32865;DHT22;19219;44.500;11.188;2023-05-16T13:57:05;15.20;99.90
32865;DHT22;19219;44.500;11.188;2023-05-16T13:59:32;15.30;99.90
32865;DHT22;19219;44.500;11.188;2023-05-16T14:01:57;15.30;99.90
32865;DHT22;19219;44.500;11.188;2023-05-16T14:04:23;15.30;99.90
32865;DHT22;19219;44.500;11.188;2023-05-16T14:06:50;15.20;99.90
32865;DHT22;19219;44.500;11.188;2023-05-16T14:09:16;15.20;99.90
32865;DHT22;19219;44.500;11.188;2023-05-16T14:11:41;15.20;99.90
32865;DHT22;19219;44.500;11.188;2023-05-16T14:14:07;15.10;99.90
32865;DHT22;19219;44.500;11.188;2023-05-16T14:16:33;15.00;99.90
32865;DHT22;19219;44.500;11.188;2023-05-16T14:18:58;15.00;99.90
32865;DHT22;19219;44.500;11.188;2023-05-16T14:21:24;15.00;99.90
32865;DHT22;19219;44.500;11.188;2023-05-16T14:23:51;15.00;99.90
32865;DHT22;19219;44.500;11.188;2023-05-16T14:26:16;15.00;99.90
32865;DHT22;19219;44.500;11.188;2023-05-16T14:28:47;15.00;99.90
32865;DHT22;19219;44.500;11.188;2023-05-16T14:31:12;15.10;99.90
32865;DHT22;19219;44.500;11.188;2023-05-16T14:33:38;15.00;99.90
32865;DHT22;19219;44.500;11.188;2023-05-16T14:36:06;15.00;99.90
32865;DHT22;19219;44.500;11.188;2023-05-16T14:38:32;15.00;99.90
32865;DHT22;19219;44.500;11.188;2023-05-16T14:40:57;15.00;99.90
32865;DHT22;19219;44.500;11.188;2023-05-16T14:43:23;15.00;99.90
32865;DHT22;19219;44.500;11.188;2023-05-16T14:45:48;15.00;99.90
32865;DHT22;19219;44.500;11.188;2023-05-16T14:48:14;15.00;99.90
32865;DHT22;19219;44.500;11.188;2023-05-16T14:50:41;15.00;99.90
32865;DHT22;19219;44.500;11.188;2023-05-16T14:53:07;15.00;99.90
32865;DHT22;19219;44.500;11.188;2023-05-16T14:55:33;15.00;99.90
32865;DHT22;19219;44.500;11.188;2023-05-16T14:57:58;15.00;99.90
32865;DHT22;19219;44.500;11.188;2023-05-16T15:00:24;15.00;99.90
32865;DHT22;19219;44.500;11.188;2023-05-16T15:02:51;15.00;99.90
32865;DHT22;19219;44.500;11.188;2023-05-16T15:05:17;15.10;99.90
32865;DHT22;19219;44.500;11.188;2023-05-16T15:07:42;15.00;99.90
32865;DHT22;19219;44.500;11.188;2023-05-16T15:10:09;15.10;99.90
32865;DHT22;19219;44.500;11.188;2023-05-16T15:12:35;15.10;99.90
32865;DHT22;19219;44.500;11.188;2023-05-16T15:15:01;15.10;99.90
32865;DHT22;19219;44.500;11.188;2023-05-16T15:17:27;15.20;99.90
32865;DHT22;19219;44.500;11.188;2023-05-16T15:19:52;15.20;99.90
32865;DHT22;19219;44.500;11.188;2023-05-16T15:22:19;15.10;99.90
32865;DHT22;19219;44.500;11.188;2023-05-16T15:24:45;15.20;99.90
32865;DHT22;19219;44.500;11.188;2023-05-16T15:27:11;15.10;99.90
32865;DHT22;19219;44.500;11.188;2023-05-16T15:29:36;15.10;99.90
32865;DHT22;19219;44.500;11.188;2023-05-16T15:32:03;15.00;99.90
32865;DHT22;19219;44.500;11.188;2023-05-16T15:34:30;15.00;99.90
32865;DHT22;19219;44.500;11.188;2023-05-16T15:36:57;15.00;99.90
32865;DHT22;19219;44.500;11.188;2023-05-16T15:39:23;14.90;99.90
32865;DHT22;19219;44.500;11.188;2023-05-16T15:41:50;15.00;99.90
32865;DHT22;19219;44.500;11.188;2023-05-16T15:44:16;14.90;99.90
32865;DHT22;19219;44.500;11.188;2023-05-16T15:46:41;15.00;99.90